Southeast Texas Regional Airport
KBPT : now visible

Airfield :











YOU CAN JOIN US ON...

 
LOGIN :

Register | Disclaimer

   EN    FR    IT 

 









Legend :    VFR   Marginal VFR   IFR   Intensive IFR   Very Intensive IFR
Visi :
Ceiling :
>= 8 km
>= 3000ft
5 to 8 km
1000 to 3000 ft
1500m to 5 km
500 to 1000 ft
800 to 1500m
200 to 500 ft
< 800m
< 200 ft
Symbols :   Thunderstorms  Fog  Heavy snow  Heavy precipitations  Wind > 20 kt






- Airport Elevation : 15 ft
- IATA code : BPT


KBPT - Southeast Texas Regional

CURRENT METAR :
  • 072053Z 19012KT 10SM SCT020 SCT030 BKN043 28/23 A2993 RMK AO2 SLP133 T02780233 58017

EXPIRED METARs :
  • 071953Z 20010G20KT 9SM SCT024 BKN038 28/23 A2995 RMK AO2 SLP140 T02830233
  • 071856Z 19008KT 9SM SCT024 BKN038 28/23 A2997 RMK AO2 T02780233

TAF KBPT
Valid from the 07 at 18:00 until the 08 at 18:00 UTC


071736Z 0718/0818 20010KT P6SM SCT017 BKN025 BKN040
TEMPO 0718/0722 SCT025 BKN050
FM080200 20007KT P6SM SCT007 OVC015
FM080600 20005KT 5SM BR SCT003 OVC007
FM081500 22007KT P6SM BKN012 OVC020



MET'MAP, your aeronautical weather chart ! - Copyright ORBIFLY December 2007 - Disclaimer

ORBIFLY MET'MAP TEAM :

Programming & Development : Alexandra Zaïnal
Concept & original design : Baudouin d'Aumeries
Assistance for programming : Marc-Olivier Méhu
Technical & hardware support : Manuel Goepfert

Contact : metmap@orbifly.com




SOURCES & CREDITS :

   NOAA       Earth
Advisory